createdAt,value
2022-07-31T00:00:44.798Z,9.73
2022-07-31T00:01:47.052Z,9.15
2022-07-31T00:02:49.524Z,9.43
2022-07-31T00:03:54.306Z,9.05
2022-07-31T00:04:58.059Z,9.90
2022-07-31T00:06:01.834Z,9.60
2022-07-31T00:07:04.422Z,9.30
2022-07-31T00:08:07.079Z,9.82
2022-07-31T00:09:48.821Z,9.15
2022-07-31T00:10:31.991Z,10.02
2022-07-31T00:11:34.115Z,10.55
2022-07-31T00:12:38.453Z,9.93
2022-07-31T00:13:57.690Z,10.00
2022-07-31T00:15:07.163Z,9.25
2022-07-31T00:16:10.794Z,9.93
2022-07-31T00:17:12.939Z,10.52
2022-07-31T00:18:15.417Z,9.95
2022-07-31T00:19:18.398Z,10.23
2022-07-31T00:20:21.805Z,10.13
2022-07-31T00:21:24.796Z,10.98
2022-07-31T00:22:26.930Z,10.40
2022-07-31T00:23:31.348Z,10.27
2022-07-31T00:24:35.042Z,9.65
2022-07-31T00:25:37.609Z,9.05
2022-07-31T00:26:41.429Z,10.02
2022-07-31T00:27:45.600Z,9.50
2022-07-31T00:28:48.417Z,10.32
2022-07-31T00:29:52.193Z,9.02
2022-07-31T00:30:55.456Z,9.32
2022-07-31T00:31:57.787Z,9.52
2022-07-31T00:33:00.076Z,9.35
2022-07-31T00:34:02.459Z,9.32
2022-07-31T00:35:04.999Z,8.70
2022-07-31T00:36:07.475Z,8.90
2022-07-31T00:37:10.311Z,8.98
2022-07-31T00:38:27.945Z,9.48
2022-07-31T00:39:31.331Z,9.55
2022-07-31T00:40:33.507Z,9.90
2022-07-31T00:41:44.936Z,13.70
2022-07-31T00:42:47.059Z,13.77
2022-07-31T00:43:49.118Z,9.40
2022-07-31T00:44:52.476Z,9.73
2022-07-31T00:45:59.047Z,9.57
2022-07-31T00:47:04.836Z,8.95
2022-07-31T00:48:07.350Z,9.75
2022-07-31T00:49:10.764Z,10.05
2022-07-31T00:50:13.666Z,9.38
2022-07-31T00:51:17.188Z,9.30
2022-07-31T00:52:23.754Z,9.38
2022-07-31T00:53:25.899Z,8.93
2022-07-31T00:54:28.009Z,9.07
2022-07-31T00:55:31.985Z,8.95
2022-07-31T00:56:53.378Z,8.70
2022-07-31T00:57:55.639Z,9.70
2022-07-31T00:58:57.773Z,9.07
2022-07-31T01:00:01.434Z,9.20
2022-07-31T01:01:07.116Z,8.80
2022-07-31T01:02:10.638Z,9.18
2022-07-31T01:03:13.836Z,8.75
2022-07-31T01:04:19.856Z,8.93
2022-07-31T01:05:23.852Z,8.98
2022-07-31T01:06:27.424Z,9.18
2022-07-31T01:07:30.115Z,9.40
2022-07-31T01:08:32.635Z,9.60
2022-07-31T01:09:34.909Z,8.68
2022-07-31T01:10:49.362Z,8.73
2022-07-31T01:12:01.580Z,8.75
2022-07-31T01:13:11.741Z,9.23
2022-07-31T01:14:15.689Z,9.05
2022-07-31T01:15:19.609Z,9.02
2022-07-31T01:16:24.935Z,9.23
2022-07-31T01:17:31.552Z,9.27
2022-07-31T01:18:37.135Z,8.50
2022-07-31T01:19:49.123Z,9.10
2022-07-31T01:20:55.779Z,8.80
2022-07-31T01:22:33.183Z,8.50
2022-07-31T01:25:59.118Z,9.02
2022-07-31T01:27:33.605Z,8.85
2022-07-31T01:29:10.127Z,8.60
2022-07-31T01:30:16.479Z,8.18
2022-07-31T01:31:27.077Z,9.05
2022-07-31T01:32:38.519Z,8.85
2022-07-31T01:33:50.367Z,8.10
2022-07-31T01:34:58.054Z,9.30
2022-07-31T01:36:09.409Z,8.50
2022-07-31T01:37:21.289Z,8.52
2022-07-31T01:38:42.486Z,8.70
2022-07-31T01:39:54.912Z,8.60
2022-07-31T01:41:05.098Z,7.97
2022-07-31T01:42:11.219Z,7.95
2022-07-31T01:43:19.619Z,8.00
2022-07-31T01:44:25.689Z,8.25
2022-07-31T01:45:30.462Z,8.88
2022-07-31T01:46:37.514Z,8.35
2022-07-31T01:47:47.488Z,7.78
2022-07-31T01:48:57.951Z,8.18
2022-07-31T01:50:02.967Z,8.05
2022-07-31T01:51:09.308Z,7.57
2022-07-31T01:52:13.623Z,8.45
2022-07-31T01:53:20.627Z,8.32
2022-07-31T01:54:25.361Z,8.57
2022-07-31T01:56:02.106Z,8.45
2022-07-31T01:56:59.686Z,9.02
2022-07-31T01:58:02.775Z,8.20
2022-07-31T01:59:20.135Z,8.35
2022-07-31T02:00:45.303Z,9.10
2022-07-31T02:01:50.794Z,8.18
2022-07-31T02:02:55.948Z,9.18
2022-07-31T02:04:00.710Z,8.60
2022-07-31T02:05:10.087Z,8.90
2022-07-31T02:06:15.444Z,8.68
2022-07-31T02:07:18.709Z,8.82
2022-07-31T02:08:23.287Z,9.50
2022-07-31T02:09:29.552Z,8.75
2022-07-31T02:10:32.438Z,8.82
2022-07-31T02:11:53.690Z,8.75
2022-07-31T02:13:01.050Z,8.55
2022-07-31T02:14:06.715Z,9.15
2022-07-31T02:15:12.574Z,8.30
2022-07-31T02:16:19.680Z,8.88
2022-07-31T02:17:26.620Z,8.65
2022-07-31T02:18:54.373Z,9.07
2022-07-31T02:20:02.083Z,8.75
2022-07-31T02:21:07.452Z,9.25
2022-07-31T02:22:11.090Z,8.82
2022-07-31T02:23:13.935Z,8.65
2022-07-31T02:24:17.989Z,8.85
2022-07-31T02:25:21.083Z,8.88
2022-07-31T02:26:25.961Z,9.10
2022-07-31T02:27:54.067Z,8.25
2022-07-31T02:28:54.758Z,9.60
2022-07-31T02:29:59.708Z,9.07
2022-07-31T02:31:03.249Z,9.50
2022-07-31T02:32:07.693Z,9.38
2022-07-31T02:33:24.694Z,9.85
2022-07-31T02:34:30.301Z,8.77
2022-07-31T02:35:36.370Z,9.73
2022-07-31T02:36:39.270Z,9.02
2022-07-31T02:37:43.197Z,8.93
2022-07-31T02:38:46.544Z,9.05
2022-07-31T02:39:54.391Z,8.77
2022-07-31T02:41:03.962Z,8.38
2022-07-31T02:42:07.089Z,8.35
2022-07-31T02:43:11.919Z,9.43
2022-07-31T02:44:15.103Z,8.80
2022-07-31T02:45:18.711Z,9.13
2022-07-31T02:46:22.128Z,8.70
2022-07-31T02:47:25.641Z,9.60
2022-07-31T02:48:29.599Z,9.63
2022-07-31T02:49:37.811Z,9.57
2022-07-31T02:50:43.278Z,9.57
2022-07-31T02:51:46.004Z,10.15
2022-07-31T02:52:48.477Z,9.98
2022-07-31T02:53:51.611Z,9.82
2022-07-31T02:54:56.276Z,9.32
2022-07-31T02:56:04.633Z,9.55
2022-07-31T02:57:11.084Z,9.35
2022-07-31T02:58:13.468Z,9.60
2022-07-31T02:59:16.026Z,9.80
2022-07-31T03:00:33.574Z,9.98
2022-07-31T03:01:36.413Z,9.80
2022-07-31T03:02:39.199Z,10.93
2022-07-31T03:03:41.383Z,9.55
2022-07-31T03:04:44.237Z,9.70
2022-07-31T03:05:46.289Z,9.43
2022-07-31T03:06:51.292Z,9.70
2022-07-31T03:07:53.764Z,9.20
2022-07-31T03:08:55.926Z,9.80
2022-07-31T03:09:59.600Z,9.68
2022-07-31T03:11:14.756Z,9.23
2022-07-31T03:12:16.848Z,9.27
2022-07-31T03:13:24.709Z,10.18
2022-07-31T03:14:32.721Z,8.35
2022-07-31T03:15:36.557Z,9.18
2022-07-31T03:16:41.430Z,8.88
2022-07-31T03:17:45.776Z,8.90
2022-07-31T03:18:54.292Z,8.18
2022-07-31T03:19:57.805Z,8.27
2022-07-31T03:21:00.173Z,7.90
2022-07-31T03:22:02.955Z,8.43
2022-07-31T03:23:05.723Z,8.88
2022-07-31T03:24:13.018Z,8.55
2022-07-31T03:25:21.586Z,9.35
2022-07-31T03:26:25.371Z,9.02
2022-07-31T03:27:27.595Z,8.73
2022-07-31T03:28:29.831Z,9.13
2022-07-31T03:29:43.431Z,9.05
2022-07-31T03:30:50.741Z,10.23
2022-07-31T03:31:57.296Z,9.05
2022-07-31T03:33:02.986Z,9.88
2022-07-31T03:34:06.966Z,9.73
2022-07-31T03:35:09.171Z,10.23
2022-07-31T03:36:11.305Z,9.98
2022-07-31T03:37:14.591Z,9.48
2022-07-31T03:38:40.597Z,9.60
2022-07-31T03:39:41.105Z,9.30
2022-07-31T03:40:47.752Z,8.85
2022-07-31T03:41:51.299Z,9.95
2022-07-31T03:42:56.484Z,9.30
2022-07-31T03:43:59.234Z,10.00
2022-07-31T03:45:02.909Z,9.73
2022-07-31T03:46:08.758Z,9.20
2022-07-31T03:47:10.942Z,8.98
2022-07-31T03:48:15.158Z,9.27
2022-07-31T03:49:17.704Z,9.50
2022-07-31T03:50:20.206Z,9.75
2022-07-31T03:51:22.415Z,9.25
2022-07-31T03:52:25.250Z,8.80
2022-07-31T03:53:31.671Z,8.93
2022-07-31T03:54:34.017Z,9.43
2022-07-31T03:55:47.036Z,9.32
2022-07-31T03:56:52.675Z,9.15
2022-07-31T03:57:56.297Z,8.68
2022-07-31T03:58:58.957Z,8.48
2022-07-31T04:00:04.198Z,8.65
2022-07-31T04:01:10.359Z,8.82
2022-07-31T04:02:15.022Z,9.10
2022-07-31T04:03:24.372Z,9.20
2022-07-31T04:04:49.192Z,8.52
2022-07-31T04:05:51.452Z,8.25
2022-07-31T04:06:53.936Z,7.28
2022-07-31T04:07:56.095Z,7.40
2022-07-31T04:08:58.380Z,6.60
2022-07-31T04:10:02.937Z,7.38
2022-07-31T04:11:05.997Z,6.75
2022-07-31T04:12:08.375Z,7.75
2022-07-31T04:13:10.713Z,7.38
2022-07-31T04:14:13.095Z,7.63
2022-07-31T04:15:15.287Z,6.50
2022-07-31T04:16:19.658Z,6.68
2022-07-31T04:17:22.409Z,6.30
2022-07-31T04:18:24.533Z,6.57
2022-07-31T04:19:26.839Z,6.13
2022-07-31T04:20:29.104Z,6.45
2022-07-31T04:21:31.618Z,6.25
2022-07-31T04:22:33.756Z,6.18
2022-07-31T04:23:38.241Z,6.40
2022-07-31T04:24:58.960Z,5.68
2022-07-31T04:26:06.704Z,6.20
2022-07-31T04:27:17.370Z,5.95
2022-07-31T04:28:19.850Z,7.03
2022-07-31T04:29:21.907Z,6.13
2022-07-31T04:30:24.762Z,5.95
2022-07-31T04:31:28.501Z,6.35
2022-07-31T04:32:30.816Z,6.00
2022-07-31T04:33:46.539Z,5.80
2022-07-31T04:34:53.781Z,5.40
2022-07-31T04:35:55.943Z,5.40
2022-07-31T04:36:59.103Z,5.50
2022-07-31T04:38:01.272Z,5.53
2022-07-31T04:39:07.651Z,5.15
2022-07-31T04:40:11.183Z,5.72
2022-07-31T04:41:13.373Z,5.03
2022-07-31T04:42:15.978Z,4.72
2022-07-31T04:43:18.145Z,4.63
2022-07-31T04:44:20.971Z,4.82
2022-07-31T04:45:33.044Z,4.45
2022-07-31T04:46:35.201Z,4.07
2022-07-31T04:47:38.675Z,4.30
2022-07-31T04:48:41.335Z,3.92
2022-07-31T04:49:46.046Z,4.05
2022-07-31T04:50:51.262Z,4.65
2022-07-31T04:51:53.484Z,3.30
2022-07-31T04:52:56.996Z,3.60
2022-07-31T04:54:03.099Z,3.50
2022-07-31T04:55:05.571Z,3.60
2022-07-31T04:56:26.235Z,3.83
2022-07-31T04:57:28.488Z,3.92
2022-07-31T04:58:30.631Z,4.18
2022-07-31T05:00:00.678Z,3.75
2022-07-31T05:00:55.720Z,3.45
2022-07-31T05:01:58.765Z,3.72
2022-07-31T05:03:01.936Z,3.67
2022-07-31T05:04:05.465Z,4.05
2022-07-31T05:05:08.012Z,3.33
2022-07-31T05:06:16.094Z,3.13
2022-07-31T05:07:18.153Z,2.95
2022-07-31T05:08:20.369Z,2.72
2022-07-31T05:09:25.405Z,3.10
2022-07-31T05:11:53.943Z,3.50
2022-07-31T05:12:57.291Z,3.20
2022-07-31T05:14:01.838Z,3.28
2022-07-31T05:15:05.456Z,3.00
2022-07-31T05:16:12.096Z,2.75
2022-07-31T05:17:15.551Z,3.15
2022-07-31T05:18:28.070Z,3.33
2022-07-31T05:20:09.373Z,2.83
2022-07-31T05:21:53.027Z,3.22
2022-07-31T05:23:16.439Z,2.92
2022-07-31T05:24:33.069Z,2.58
2022-07-31T05:25:43.866Z,2.95
2022-07-31T05:26:45.930Z,3.08
2022-07-31T05:27:50.865Z,2.90
2022-07-31T05:28:58.279Z,2.80
2022-07-31T05:30:01.394Z,3.00
2022-07-31T05:31:06.473Z,2.75
2022-07-31T05:32:08.590Z,2.42
2022-07-31T05:33:12.077Z,2.67
2022-07-31T05:34:16.092Z,3.30
2022-07-31T05:35:18.389Z,3.22
2022-07-31T05:36:21.488Z,2.55
2022-07-31T05:37:23.650Z,2.25
2022-07-31T05:38:26.575Z,2.78
2022-07-31T05:39:47.126Z,2.50
2022-07-31T05:41:07.696Z,2.70
2022-07-31T05:42:30.010Z,1.85
2022-07-31T05:43:52.348Z,2.00
2022-07-31T05:45:00.092Z,1.92
2022-07-31T05:46:02.997Z,3.60
2022-07-31T05:47:08.070Z,2.38
2022-07-31T05:48:10.353Z,2.25
2022-07-31T05:49:12.493Z,2.20
2022-07-31T05:50:16.993Z,1.80
2022-07-31T05:51:19.063Z,2.05
2022-07-31T05:52:22.770Z,2.25
2022-07-31T05:53:45.847Z,2.42
2022-07-31T05:55:07.219Z,2.35
2022-07-31T05:56:32.280Z,2.28
2022-07-31T05:57:35.794Z,2.60
2022-07-31T05:58:44.185Z,2.35
2022-07-31T05:59:51.664Z,2.50
2022-07-31T06:00:56.689Z,2.20
2022-07-31T06:01:59.521Z,2.47
2022-07-31T06:03:02.598Z,2.45
2022-07-31T06:04:27.669Z,2.40
2022-07-31T06:05:30.276Z,2.30
2022-07-31T06:06:32.373Z,2.10
2022-07-31T06:07:35.288Z,2.50
2022-07-31T06:08:38.203Z,2.50
2022-07-31T06:09:40.409Z,2.20
2022-07-31T06:10:42.587Z,2.20
2022-07-31T06:11:44.705Z,1.92
2022-07-31T06:12:47.671Z,1.67
2022-07-31T06:13:49.754Z,1.60
2022-07-31T06:15:01.313Z,1.67
2022-07-31T06:16:13.937Z,1.48
2022-07-31T06:17:16.511Z,1.42
2022-07-31T06:18:21.193Z,1.50
2022-07-31T06:19:24.333Z,1.45
2022-07-31T06:20:27.869Z,1.50
2022-07-31T06:21:30.963Z,1.60
2022-07-31T06:22:33.521Z,1.75
2022-07-31T06:23:35.848Z,1.80
2022-07-31T06:24:49.814Z,1.80
2022-07-31T06:25:53.492Z,1.50
2022-07-31T06:27:00.483Z,1.90
2022-07-31T06:29:13.310Z,1.55
2022-07-31T06:30:15.826Z,1.83
2022-07-31T06:31:21.963Z,1.65
2022-07-31T06:33:37.755Z,1.83
2022-07-31T06:34:41.042Z,1.70
2022-07-31T06:35:43.609Z,1.60
2022-07-31T06:37:26.422Z,1.50
2022-07-31T06:38:31.008Z,1.42
2022-07-31T06:39:56.638Z,2.10
2022-07-31T06:41:35.980Z,1.33
2022-07-31T06:42:58.449Z,1.40
2022-07-31T06:44:20.255Z,1.38
2022-07-31T06:45:52.223Z,1.30
2022-07-31T06:47:32.783Z,2.08
2022-07-31T06:48:34.764Z,1.33
2022-07-31T06:49:43.312Z,1.50
2022-07-31T06:50:45.563Z,1.58
2022-07-31T06:52:06.629Z,1.40
2022-07-31T06:53:09.041Z,1.65
2022-07-31T06:54:12.536Z,1.80
2022-07-31T06:55:14.623Z,1.63
2022-07-31T06:56:16.746Z,1.70
2022-07-31T06:57:19.222Z,2.30
2022-07-31T06:58:21.316Z,1.52
2022-07-31T06:59:39.701Z,1.67
2022-07-31T07:00:43.330Z,1.70
2022-07-31T07:01:45.535Z,2.15
2022-07-31T07:02:47.858Z,1.85
2022-07-31T07:03:50.616Z,1.70
2022-07-31T07:04:57.347Z,1.70
2022-07-31T07:06:09.640Z,1.60
2022-07-31T07:07:12.161Z,1.70
2022-07-31T07:08:14.681Z,2.00
2022-07-31T07:09:18.357Z,2.08
2022-07-31T07:10:20.758Z,2.40
2022-07-31T07:11:34.883Z,1.50
2022-07-31T07:12:36.958Z,2.15
2022-07-31T07:13:44.982Z,1.67
2022-07-31T07:14:47.806Z,1.58
2022-07-31T07:15:50.097Z,1.77
2022-07-31T07:16:52.355Z,1.80
2022-07-31T07:17:55.531Z,1.45
2022-07-31T07:19:08.405Z,1.80
2022-07-31T07:20:10.781Z,1.58
2022-07-31T07:21:15.697Z,1.92
2022-07-31T07:22:17.896Z,1.80
2022-07-31T07:23:33.672Z,2.25
2022-07-31T07:24:48.929Z,1.73
2022-07-31T07:25:56.699Z,1.58
2022-07-31T07:27:00.039Z,1.50
2022-07-31T07:28:02.131Z,1.75
2022-07-31T07:29:04.601Z,1.77
2022-07-31T07:30:07.678Z,1.63
2022-07-31T07:31:09.949Z,1.45
2022-07-31T07:32:13.451Z,1.83
2022-07-31T07:33:40.481Z,1.52
2022-07-31T07:34:40.541Z,1.60
2022-07-31T07:35:50.210Z,1.63
2022-07-31T07:36:54.269Z,1.80
2022-07-31T07:37:59.793Z,1.63
2022-07-31T07:39:02.636Z,1.92
2022-07-31T07:40:08.338Z,1.90
2022-07-31T07:41:10.893Z,1.58
2022-07-31T07:42:13.039Z,1.73
2022-07-31T07:43:15.345Z,1.88
2022-07-31T07:44:17.670Z,2.03
2022-07-31T07:45:20.100Z,2.00
2022-07-31T07:46:26.267Z,1.83
2022-07-31T07:48:05.100Z,2.30
2022-07-31T07:48:55.900Z,1.95
2022-07-31T07:50:21.202Z,2.00
2022-07-31T07:51:58.389Z,1.90
2022-07-31T07:53:14.657Z,2.60
2022-07-31T07:54:35.278Z,2.40
2022-07-31T07:55:56.125Z,1.88
2022-07-31T07:57:39.228Z,2.05
2022-07-31T07:59:00.026Z,3.67
2022-07-31T08:00:21.208Z,2.65
2022-07-31T08:01:30.506Z,2.00
2022-07-31T08:02:45.019Z,2.28
2022-07-31T08:04:07.882Z,1.98
2022-07-31T08:05:10.347Z,2.28
2022-07-31T08:06:14.144Z,2.13
2022-07-31T08:07:16.417Z,2.42
2022-07-31T08:08:18.643Z,2.20
2022-07-31T08:09:43.281Z,2.00
2022-07-31T08:10:45.384Z,2.35
2022-07-31T08:11:53.991Z,2.30
2022-07-31T08:13:14.892Z,2.22
2022-07-31T08:14:42.751Z,2.08
2022-07-31T08:16:10.468Z,2.03
2022-07-31T08:17:33.095Z,2.20
2022-07-31T08:18:35.938Z,2.40
2022-07-31T08:19:38.096Z,2.28
2022-07-31T08:20:42.826Z,2.33
2022-07-31T08:21:46.244Z,2.30
2022-07-31T08:22:48.396Z,2.33
2022-07-31T08:23:52.955Z,2.30
2022-07-31T08:24:57.224Z,2.30
2022-07-31T08:25:59.504Z,2.30
2022-07-31T08:27:21.662Z,2.40
2022-07-31T08:28:27.908Z,2.47
2022-07-31T08:29:30.645Z,2.53
2022-07-31T08:30:48.908Z,2.45
2022-07-31T08:31:55.081Z,2.50
2022-07-31T08:33:22.523Z,2.65
2022-07-31T08:34:32.205Z,2.63
2022-07-31T08:35:39.210Z,2.28
2022-07-31T08:36:42.044Z,2.15
2022-07-31T08:37:51.677Z,2.42
2022-07-31T08:39:21.077Z,2.40
2022-07-31T08:40:42.993Z,2.47
2022-07-31T08:41:46.348Z,2.03
2022-07-31T08:42:51.381Z,2.40
2022-07-31T08:44:03.288Z,2.67
2022-07-31T08:45:09.397Z,2.83
2022-07-31T08:46:18.896Z,2.45
2022-07-31T08:47:25.824Z,2.92
2022-07-31T08:48:33.218Z,2.40
2022-07-31T08:49:42.132Z,2.22
2022-07-31T08:52:16.920Z,2.22
2022-07-31T08:54:51.455Z,2.67
2022-07-31T08:55:56.444Z,3.00
2022-07-31T08:57:04.934Z,2.50
2022-07-31T08:58:15.819Z,2.53
2022-07-31T08:59:18.757Z,2.42
2022-07-31T09:00:23.045Z,2.40
2022-07-31T09:01:25.264Z,2.67
2022-07-31T09:02:27.701Z,2.40
2022-07-31T09:03:47.834Z,2.33
2022-07-31T09:04:52.759Z,2.67
2022-07-31T09:05:56.350Z,2.42
2022-07-31T09:07:00.860Z,2.88
2022-07-31T09:08:06.569Z,2.53
2022-07-31T09:09:19.277Z,2.15
2022-07-31T09:10:27.451Z,2.67
2022-07-31T09:11:29.913Z,2.63
2022-07-31T09:12:50.400Z,2.55
2022-07-31T09:14:03.473Z,2.55
2022-07-31T09:15:33.080Z,2.45
2022-07-31T09:16:49.261Z,2.72
2022-07-31T09:17:56.207Z,2.50
2022-07-31T09:19:53.443Z,2.38
2022-07-31T09:20:29.944Z,2.35
2022-07-31T09:21:45.646Z,2.65
2022-07-31T09:22:52.541Z,2.75
2022-07-31T09:23:55.015Z,2.97
2022-07-31T09:25:16.426Z,2.63
2022-07-31T09:26:18.831Z,2.63
2022-07-31T09:27:28.597Z,2.75
2022-07-31T09:28:38.920Z,2.90
2022-07-31T09:29:42.876Z,2.50
2022-07-31T09:30:58.488Z,2.50
2022-07-31T09:32:20.937Z,2.60
2022-07-31T09:33:45.920Z,2.20
2022-07-31T09:35:14.525Z,3.72
2022-07-31T09:36:24.620Z,3.10
2022-07-31T09:37:34.284Z,2.70
2022-07-31T09:39:04.159Z,4.20
2022-07-31T09:40:09.614Z,3.28
2022-07-31T09:41:58.145Z,3.08
2022-07-31T09:43:31.355Z,2.70
2022-07-31T09:44:45.677Z,2.53
2022-07-31T09:45:58.933Z,2.58
2022-07-31T09:47:01.851Z,2.78
2022-07-31T09:48:14.441Z,4.20
2022-07-31T09:49:30.093Z,2.70
2022-07-31T09:50:32.512Z,3.55
2022-07-31T09:51:47.099Z,3.60
2022-07-31T09:53:01.226Z,3.15
2022-07-31T09:54:06.940Z,3.30
2022-07-31T09:55:29.017Z,3.15
2022-07-31T09:56:40.289Z,3.00
2022-07-31T09:58:00.177Z,3.00
2022-07-31T09:59:12.030Z,3.38
2022-07-31T10:00:17.317Z,3.10
2022-07-31T10:01:21.668Z,3.53
2022-07-31T10:02:27.764Z,2.97
2022-07-31T10:03:33.120Z,3.15
2022-07-31T10:04:39.394Z,2.92
2022-07-31T10:05:47.046Z,2.90
2022-07-31T10:06:52.512Z,2.97
2022-07-31T10:08:00.994Z,4.07
2022-07-31T10:09:21.967Z,3.22
2022-07-31T10:10:44.329Z,2.95
2022-07-31T10:12:12.447Z,3.00
2022-07-31T10:13:21.223Z,2.83
2022-07-31T10:14:29.170Z,2.65
2022-07-31T10:15:35.998Z,3.42
2022-07-31T10:17:01.553Z,2.90
2022-07-31T10:18:44.600Z,2.80
2022-07-31T10:20:24.241Z,2.92
2022-07-31T10:22:03.662Z,2.70
2022-07-31T10:23:20.006Z,2.85
2022-07-31T10:24:28.506Z,2.72
2022-07-31T10:25:39.351Z,2.78
2022-07-31T10:27:01.132Z,2.60
2022-07-31T10:28:07.506Z,2.40
2022-07-31T10:29:10.465Z,2.80
2022-07-31T10:30:13.659Z,2.40
2022-07-31T10:31:20.918Z,2.25
2022-07-31T10:32:26.063Z,2.60
2022-07-31T10:33:52.671Z,2.40
2022-07-31T10:35:43.373Z,2.53
2022-07-31T10:37:23.376Z,2.60
2022-07-31T10:38:53.854Z,2.30
2022-07-31T10:40:34.213Z,2.25
2022-07-31T10:41:52.476Z,2.33
2022-07-31T10:43:17.024Z,2.45
2022-07-31T10:44:38.788Z,2.17
2022-07-31T10:45:56.153Z,2.28
2022-07-31T10:47:17.991Z,2.30
2022-07-31T10:48:37.982Z,2.28
2022-07-31T10:50:03.812Z,2.30
2022-07-31T10:51:16.031Z,2.38
2022-07-31T10:52:40.193Z,2.72
2022-07-31T10:53:59.639Z,2.70
2022-07-31T10:55:25.379Z,2.90
2022-07-31T10:56:48.445Z,2.63
2022-07-31T10:58:25.159Z,2.45
2022-07-31T10:59:30.449Z,2.60
2022-07-31T11:01:09.843Z,2.90
2022-07-31T11:02:34.050Z,3.03
2022-07-31T11:04:05.608Z,2.58
2022-07-31T11:05:24.702Z,2.75
2022-07-31T11:06:48.813Z,2.58
2022-07-31T11:08:11.286Z,3.60
2022-07-31T11:09:30.410Z,2.55
2022-07-31T11:10:56.274Z,2.78
2022-07-31T11:12:18.952Z,2.83
2022-07-31T11:13:51.374Z,2.88
2022-07-31T11:15:24.593Z,2.88
2022-07-31T11:16:58.973Z,2.92
2022-07-31T11:18:27.554Z,3.17
2022-07-31T11:19:43.690Z,3.28
2022-07-31T11:20:50.019Z,2.80
2022-07-31T11:21:57.450Z,3.38
2022-07-31T11:23:03.524Z,2.90
2022-07-31T11:24:16.042Z,2.78
2022-07-31T11:25:18.960Z,2.67
2022-07-31T11:26:33.508Z,2.65
2022-07-31T11:27:43.379Z,3.08
2022-07-31T11:28:45.636Z,2.95
2022-07-31T11:30:01.280Z,2.60
2022-07-31T11:31:07.452Z,2.63
2022-07-31T11:32:25.350Z,3.28
2022-07-31T11:33:43.071Z,2.72
2022-07-31T11:34:45.560Z,2.47
2022-07-31T11:35:47.659Z,2.90
2022-07-31T11:36:51.666Z,3.00
2022-07-31T11:37:58.015Z,2.50
2022-07-31T11:39:01.062Z,2.70
2022-07-31T11:40:07.057Z,2.75
2022-07-31T11:41:10.674Z,2.97
2022-07-31T11:42:17.669Z,3.10
2022-07-31T11:43:27.237Z,2.92
2022-07-31T11:44:29.723Z,2.72
2022-07-31T11:45:33.441Z,2.58
2022-07-31T11:46:38.209Z,2.72
2022-07-31T11:48:13.424Z,2.72
2022-07-31T11:49:21.640Z,2.88
2022-07-31T11:50:44.947Z,2.97
2022-07-31T11:51:48.582Z,2.78
2022-07-31T11:52:50.791Z,3.10
2022-07-31T11:53:57.575Z,3.50
2022-07-31T11:55:14.465Z,3.92
2022-07-31T11:56:19.507Z,3.27
2022-07-31T11:57:22.094Z,3.60
2022-07-31T11:58:26.746Z,3.30
2022-07-31T11:59:45.220Z,3.00
2022-07-31T12:00:53.096Z,3.42
2022-07-31T12:02:10.432Z,3.50
2022-07-31T12:03:15.180Z,3.17
2022-07-31T12:04:19.391Z,2.92
2022-07-31T12:05:36.084Z,3.50
2022-07-31T12:06:41.457Z,3.20
2022-07-31T12:07:47.210Z,2.88
2022-07-31T12:08:50.138Z,2.80
2022-07-31T12:10:02.806Z,2.88
2022-07-31T12:11:09.622Z,3.40
2022-07-31T12:12:14.321Z,3.75
2022-07-31T12:13:18.649Z,3.22
2022-07-31T12:14:31.120Z,3.78
2022-07-31T12:15:33.430Z,3.30
2022-07-31T12:16:44.523Z,3.10
2022-07-31T12:17:47.452Z,3.25
2022-07-31T12:18:53.883Z,2.75
2022-07-31T12:20:06.928Z,3.10
2022-07-31T12:21:09.418Z,2.45
2022-07-31T12:22:21.537Z,2.70
2022-07-31T12:23:38.527Z,2.67
2022-07-31T12:24:43.463Z,2.53
2022-07-31T12:25:48.749Z,2.40
2022-07-31T12:26:54.011Z,2.88
2022-07-31T12:27:56.111Z,2.92
2022-07-31T12:28:59.885Z,2.80
2022-07-31T12:30:13.530Z,3.00
2022-07-31T12:31:15.604Z,2.60
2022-07-31T12:32:25.918Z,2.78
2022-07-31T12:33:28.483Z,2.63
2022-07-31T12:34:36.403Z,2.60
2022-07-31T12:35:56.024Z,2.90
2022-07-31T12:37:06.980Z,2.63
2022-07-31T12:38:36.886Z,3.90
2022-07-31T12:39:54.050Z,3.20
2022-07-31T12:41:09.605Z,2.55
2022-07-31T12:42:30.477Z,3.00
2022-07-31T12:43:34.128Z,2.60
2022-07-31T12:44:48.460Z,3.00
2022-07-31T12:45:52.750Z,2.70
2022-07-31T12:46:54.925Z,2.63
2022-07-31T12:47:58.882Z,2.78
2022-07-31T12:49:01.191Z,2.65
2022-07-31T12:50:04.491Z,2.70
2022-07-31T12:51:06.916Z,2.90
2022-07-31T12:52:10.108Z,3.38
2022-07-31T12:53:12.140Z,3.00
2022-07-31T12:54:16.558Z,3.15
2022-07-31T12:55:19.740Z,2.97
2022-07-31T12:56:22.038Z,2.80
2022-07-31T12:57:24.773Z,2.85
2022-07-31T12:58:26.851Z,3.22
2022-07-31T12:59:29.243Z,2.90
2022-07-31T13:00:31.352Z,3.03
2022-07-31T13:01:34.621Z,2.80
2022-07-31T13:02:37.423Z,3.00
2022-07-31T13:03:46.345Z,2.72
2022-07-31T13:04:48.654Z,3.90
2022-07-31T13:05:52.282Z,2.97
2022-07-31T13:06:54.685Z,3.60
2022-07-31T13:07:57.418Z,3.28
2022-07-31T13:08:59.710Z,2.80
2022-07-31T13:10:20.864Z,2.60
2022-07-31T13:11:29.142Z,3.78
2022-07-31T13:12:31.225Z,3.35
2022-07-31T13:13:33.286Z,2.67
2022-07-31T13:14:35.338Z,3.00
2022-07-31T13:15:37.386Z,2.88
2022-07-31T13:16:39.487Z,3.28
2022-07-31T13:17:43.889Z,3.92
2022-07-31T13:18:52.183Z,3.35
2022-07-31T13:19:54.278Z,3.63
2022-07-31T13:20:56.383Z,3.20
2022-07-31T13:21:58.604Z,3.22
2022-07-31T13:23:02.379Z,4.25
2022-07-31T13:24:06.596Z,2.75
2022-07-31T13:25:09.285Z,3.20
2022-07-31T13:26:11.416Z,2.83
2022-07-31T13:27:13.423Z,2.90
2022-07-31T13:28:15.676Z,2.92
2022-07-31T13:29:18.069Z,2.97
2022-07-31T13:30:20.146Z,2.63
2022-07-31T13:31:22.289Z,2.88
2022-07-31T13:32:25.656Z,3.40
2022-07-31T13:33:28.437Z,3.05
2022-07-31T13:34:30.626Z,3.20
2022-07-31T13:35:32.901Z,3.03
2022-07-31T13:36:39.470Z,3.28
2022-07-31T13:37:43.178Z,3.25
2022-07-31T13:38:45.317Z,2.90
2022-07-31T13:39:47.328Z,3.35
2022-07-31T13:41:07.749Z,3.30
2022-07-31T13:42:10.074Z,3.50
2022-07-31T13:43:13.595Z,3.10
2022-07-31T13:44:16.153Z,3.17
2022-07-31T13:45:18.478Z,3.17
2022-07-31T13:46:22.114Z,2.97
2022-07-31T13:47:25.365Z,3.00
2022-07-31T13:48:49.138Z,2.88
2022-07-31T13:49:51.258Z,3.20
2022-07-31T13:50:53.316Z,3.17
2022-07-31T13:51:56.464Z,3.38
2022-07-31T13:53:01.881Z,3.13
2022-07-31T13:54:04.677Z,3.50
2022-07-31T13:55:12.406Z,3.28
2022-07-31T13:56:14.455Z,3.45
2022-07-31T13:57:36.597Z,3.30
2022-07-31T13:58:39.431Z,3.17
2022-07-31T13:59:41.444Z,3.25
2022-07-31T14:00:43.643Z,3.55
2022-07-31T14:02:03.620Z,3.38
2022-07-31T14:04:12.828Z,3.40
2022-07-31T14:05:18.058Z,3.10
2022-07-31T14:06:22.220Z,3.75
2022-07-31T14:07:48.178Z,3.40
2022-07-31T14:08:49.756Z,3.50
2022-07-31T14:09:55.046Z,3.88
2022-07-31T14:10:58.174Z,3.70
2022-07-31T14:12:03.839Z,3.72
2022-07-31T14:13:07.079Z,3.50
2022-07-31T14:14:09.540Z,3.78
2022-07-31T14:15:11.559Z,3.95
2022-07-31T14:16:13.627Z,3.50
2022-07-31T14:17:17.216Z,3.53
2022-07-31T14:18:19.324Z,3.97
2022-07-31T14:19:21.357Z,3.55
2022-07-31T14:20:23.806Z,4.00
2022-07-31T14:21:25.810Z,6.22
2022-07-31T14:22:29.744Z,4.60
2022-07-31T14:23:34.117Z,3.47
2022-07-31T14:24:38.040Z,3.47
2022-07-31T14:25:41.669Z,5.72
2022-07-31T14:26:43.973Z,3.60
2022-07-31T14:27:50.392Z,5.75
2022-07-31T14:28:52.722Z,4.35
2022-07-31T14:29:55.424Z,4.18
2022-07-31T14:30:57.673Z,4.38
2022-07-31T14:31:59.946Z,4.03
2022-07-31T14:33:05.281Z,6.85
2022-07-31T14:34:07.614Z,4.40
2022-07-31T14:35:10.879Z,4.10
2022-07-31T14:36:21.230Z,4.00
2022-07-31T14:37:24.618Z,4.05
2022-07-31T14:38:29.160Z,3.92
2022-07-31T14:39:31.497Z,3.90
2022-07-31T14:40:33.690Z,3.75
2022-07-31T14:41:35.732Z,4.10
2022-07-31T14:42:38.046Z,4.35
2022-07-31T14:43:41.445Z,4.63
2022-07-31T14:44:43.716Z,3.75
2022-07-31T14:45:51.613Z,4.47
2022-07-31T14:46:54.135Z,3.85
2022-07-31T14:47:56.507Z,3.55
2022-07-31T14:49:00.208Z,3.80
2022-07-31T14:50:08.565Z,3.42
2022-07-31T14:51:19.296Z,3.53
2022-07-31T14:52:21.373Z,3.35
2022-07-31T14:53:23.481Z,3.35
2022-07-31T14:54:26.049Z,3.50
2022-07-31T14:55:29.311Z,3.92
2022-07-31T14:56:59.720Z,3.78
2022-07-31T14:57:54.177Z,4.63
2022-07-31T14:58:58.126Z,4.05
2022-07-31T15:00:01.084Z,4.00
2022-07-31T15:01:04.887Z,3.97
2022-07-31T15:02:07.433Z,3.83
2022-07-31T15:03:09.466Z,6.75
2022-07-31T15:04:11.707Z,5.25
2022-07-31T15:06:43.862Z,5.72
2022-07-31T15:06:56.402Z,5.50
2022-07-31T15:08:04.192Z,4.75
2022-07-31T15:09:06.673Z,4.82
2022-07-31T15:10:12.275Z,4.90
2022-07-31T15:11:14.365Z,4.45
2022-07-31T15:12:19.975Z,4.20
2022-07-31T15:13:22.151Z,3.63
2022-07-31T15:14:24.649Z,3.40
2022-07-31T15:15:28.614Z,3.33
2022-07-31T15:16:32.864Z,3.97
2022-07-31T15:17:35.108Z,4.03
2022-07-31T15:18:37.257Z,4.35
2022-07-31T15:19:39.542Z,4.03